LiveATC.Net - Listen to live air traffic control over the Internet!


ICAO: KFLO  IATA: FLO   Airport: Florence Regional Airport
City: Florence   State/Province: South Carolina
Country: United States   Continent: North America
KFLO METAR Weather: KFLO 151853Z 36004KT 10SM CLR 37/20 A3006 RMK AO2 SLP176 T03720200
KFLO Flight Activity (FlightAware)
KFLO Airport Info   (iFlightPlanner)
KFLO VFR Sectional Chart   (iFlightPlanner) 
KFLO IFR Low Chart   (iFlightPlanner) 

KFLO Gnd/Twr/App
Feed Status: UP   Listeners: 0
Listen in your browser - HTML5 player (in browser, HTML5)
Click here to listen with your own player (launches your MP3 player)
KFLO Gnd/Twr/App Audio Archives
FacilityFrequency
Florence Approach118.600
Florence Approach135.250
Florence Ground121.900
Florence Tower125.100

NOTICE

Unauthorized use prohibited. See LiveATC.net Terms of Service


Find LiveATC Audio Streams


Airport/ARTCC Code

Frequency Search
(e.g., 124.400, 128.75)
Site-wide search
 


Browse LiveATC Feeds
Top 50 LiveATC Feeds
LiveATC Feed Map
Bad Weather Areas

LiveATC FAQ
Offer LiveATC feed
Contact LiveATC.net
Press Inquiries

LiveATC on iPhone
LiveATC on Android

Windows Phone
Windows 8/10

LiveATC Mobile
(Mobile browser)

ATC Audio Archives
Interesting Recordings

LiveATC Forums


Home Page
About LiveATC.net
Make a Donation
Terms of Use
Privacy Policy

Canadian Air Freqs

AIRMETs/SIGMETs

FAA Airport Status
Nat'l Airspace Status
Arrival Demand Charts


Server Software By:
Icecast.org
Liquidsoap